createdAt,value
2019-06-01T00:00:53.046Z,14.20
2019-06-01T00:03:21.587Z,14.20
2019-06-01T00:05:48.810Z,14.20
2019-06-01T00:08:16.277Z,14.10
2019-06-01T00:10:43.482Z,14.10
2019-06-01T00:13:10.670Z,14.10
2019-06-01T00:15:37.942Z,14.10
2019-06-01T00:18:05.291Z,14.10
2019-06-01T00:20:32.506Z,14.10
2019-06-01T00:22:59.624Z,14.00
2019-06-01T00:25:26.775Z,14.00
2019-06-01T00:27:54.131Z,14.00
2019-06-01T00:30:27.015Z,13.90
2019-06-01T00:32:51.323Z,13.90
2019-06-01T00:35:18.627Z,13.90
2019-06-01T00:37:47.538Z,13.90
2019-06-01T00:40:15.275Z,13.80
2019-06-01T00:42:42.515Z,13.80
2019-06-01T00:45:10.086Z,13.80
2019-06-01T00:47:37.211Z,13.80
2019-06-01T00:50:04.837Z,13.80
2019-06-01T00:52:32.474Z,13.80
2019-06-01T00:54:59.704Z,13.70
2019-06-01T00:57:27.191Z,13.70
2019-06-01T00:59:55.095Z,13.80
2019-06-01T01:02:23.421Z,13.80
2019-06-01T01:05:01.031Z,13.70
2019-06-01T01:07:28.134Z,13.70
2019-06-01T01:09:55.334Z,13.60
2019-06-01T01:12:22.550Z,13.60
2019-06-01T01:14:49.747Z,13.60
2019-06-01T01:17:16.915Z,13.60
2019-06-01T01:19:43.918Z,13.60
2019-06-01T01:22:11.016Z,13.60
2019-06-01T01:24:38.077Z,13.50
2019-06-01T01:27:05.267Z,13.50
2019-06-01T01:29:32.659Z,13.40
2019-06-01T01:31:59.707Z,13.40
2019-06-01T01:34:27.254Z,13.40
2019-06-01T01:36:55.998Z,13.30
2019-06-01T01:39:23.287Z,13.30
2019-06-01T01:41:50.375Z,13.30
2019-06-01T01:44:17.463Z,13.30
2019-06-01T01:46:44.607Z,13.20
2019-06-01T01:49:11.781Z,13.20
2019-06-01T01:51:38.939Z,13.20
2019-06-01T01:54:06.299Z,13.20
2019-06-01T01:56:33.367Z,13.10
2019-06-01T01:59:00.459Z,13.10
2019-06-01T02:01:27.750Z,13.20
2019-06-01T02:03:55.492Z,13.10
2019-06-01T02:06:22.946Z,13.10
2019-06-01T02:08:51.006Z,13.10
2019-06-01T02:11:18.319Z,13.10
2019-06-01T02:13:45.346Z,13.00
2019-06-01T02:16:12.259Z,13.00
2019-06-01T02:18:39.303Z,13.00
2019-06-01T02:21:06.350Z,13.00
2019-06-01T02:23:33.367Z,13.00
2019-06-01T02:26:01.158Z,12.90
2019-06-01T02:28:28.303Z,12.90
2019-06-01T02:30:56.105Z,12.90
2019-06-01T02:33:23.942Z,12.90
2019-06-01T02:35:50.891Z,13.00
2019-06-01T02:38:18.080Z,13.00
2019-06-01T02:40:45.108Z,12.90
2019-06-01T02:43:12.363Z,13.00
2019-06-01T02:45:39.276Z,12.90
2019-06-01T02:48:06.762Z,12.90
2019-06-01T02:50:34.053Z,12.90
2019-06-01T02:53:01.545Z,13.00
2019-06-01T02:55:28.638Z,13.00
2019-06-01T02:57:56.001Z,13.00
2019-06-01T03:01:03.305Z,12.90
2019-06-01T03:03:30.690Z,12.90
2019-06-01T03:06:01.400Z,12.90
2019-06-01T03:08:30.452Z,12.90
2019-06-01T03:10:59.775Z,12.90
2019-06-01T03:13:27.942Z,12.90
2019-06-01T03:15:58.197Z,12.90
2019-06-01T03:18:28.673Z,12.90
2019-06-01T03:20:56.561Z,13.00
2019-06-01T03:23:25.803Z,13.00
2019-06-01T03:25:53.274Z,13.00
2019-06-01T03:28:24.143Z,13.00
2019-06-01T03:30:51.272Z,13.00
2019-06-01T03:33:18.472Z,13.00
2019-06-01T03:35:47.041Z,13.00
2019-06-01T03:38:14.419Z,13.00
2019-06-01T03:40:42.206Z,13.00
2019-06-01T03:43:11.330Z,13.00
2019-06-01T03:45:38.743Z,13.00
2019-06-01T03:48:06.753Z,13.00
2019-06-01T03:50:34.076Z,13.10
2019-06-01T03:53:01.729Z,13.10
2019-06-01T03:55:29.107Z,13.20
2019-06-01T03:57:56.232Z,13.10
2019-06-01T04:00:23.500Z,13.20
2019-06-01T04:02:50.613Z,13.20
2019-06-01T04:05:17.710Z,13.30
2019-06-01T04:07:44.899Z,13.30
2019-06-01T04:10:12.327Z,13.40
2019-06-01T04:12:39.518Z,13.40
2019-06-01T04:15:10.114Z,13.40
2019-06-01T04:17:35.761Z,13.40
2019-06-01T04:20:03.917Z,13.50
2019-06-01T04:22:31.481Z,13.50
2019-06-01T04:24:58.475Z,13.60
2019-06-01T04:27:25.639Z,13.70
2019-06-01T04:29:52.918Z,13.80
2019-06-01T04:32:20.375Z,13.80
2019-06-01T04:34:47.543Z,14.00
2019-06-01T04:37:14.586Z,14.10
2019-06-01T04:39:41.726Z,14.10
2019-06-01T04:42:09.764Z,14.30
2019-06-01T04:44:37.081Z,14.40
2019-06-01T04:47:04.417Z,14.50
2019-06-01T04:49:31.671Z,14.60
2019-06-01T04:51:58.803Z,14.70
2019-06-01T04:54:25.811Z,14.80
2019-06-01T04:56:53.207Z,14.80
2019-06-01T04:59:20.506Z,14.80
2019-06-01T05:01:48.525Z,14.80
2019-06-01T05:04:15.946Z,14.80
2019-06-01T05:06:42.927Z,14.90
2019-06-01T05:09:11.270Z,15.00
2019-06-01T05:11:38.702Z,15.10
2019-06-01T05:14:05.950Z,15.30
2019-06-01T05:16:33.099Z,15.40
2019-06-01T05:19:00.283Z,15.60
2019-06-01T05:21:27.611Z,15.80
2019-06-01T05:23:54.886Z,16.00
2019-06-01T05:26:21.991Z,16.10
2019-06-01T05:28:49.103Z,16.20
2019-06-01T05:31:24.222Z,16.30
2019-06-01T05:33:45.571Z,16.40
2019-06-01T05:36:14.145Z,16.60
2019-06-01T05:38:41.431Z,16.70
2019-06-01T05:41:10.367Z,16.80
2019-06-01T05:43:38.597Z,16.80
2019-06-01T05:46:05.600Z,16.80
2019-06-01T05:48:32.640Z,16.80
2019-06-01T05:50:59.963Z,16.80
2019-06-01T05:53:27.202Z,16.90
2019-06-01T05:55:54.356Z,17.00
2019-06-01T05:58:21.843Z,17.10
2019-06-01T06:00:50.644Z,17.10
2019-06-01T06:03:22.291Z,17.20
2019-06-01T06:05:50.057Z,17.20
2019-06-01T06:08:20.110Z,17.30
2019-06-01T06:10:48.980Z,17.30
2019-06-01T06:13:19.295Z,17.40
2019-06-01T06:15:48.007Z,17.40
2019-06-01T06:18:17.758Z,17.50
2019-06-01T06:20:47.825Z,17.60
2019-06-01T06:23:16.697Z,17.70
2019-06-01T06:25:45.516Z,17.70
2019-06-01T06:28:12.784Z,17.80
2019-06-01T06:30:39.942Z,17.80
2019-06-01T06:33:07.026Z,17.90
2019-06-01T06:35:34.160Z,18.00
2019-06-01T06:38:02.424Z,18.00
2019-06-01T06:40:29.772Z,18.20
2019-06-01T06:42:56.735Z,18.40
2019-06-01T06:45:24.939Z,18.70
2019-06-01T06:48:02.345Z,18.90
2019-06-01T06:50:30.361Z,19.10
2019-06-01T06:52:57.459Z,19.30
2019-06-01T06:55:24.517Z,19.40
2019-06-01T06:57:53.409Z,19.50
2019-06-01T07:00:22.567Z,19.60
2019-06-01T07:02:49.970Z,19.60
2019-06-01T07:05:17.407Z,19.50
2019-06-01T07:07:44.583Z,19.60
2019-06-01T07:10:12.131Z,19.50
2019-06-01T07:12:39.328Z,19.50
2019-06-01T07:15:06.528Z,19.40
2019-06-01T07:17:33.725Z,19.50
2019-06-01T07:20:00.860Z,19.50
2019-06-01T07:22:28.125Z,19.50
2019-06-01T07:24:55.297Z,19.50
2019-06-01T07:27:23.095Z,19.60
2019-06-01T07:29:51.156Z,19.60
2019-06-01T07:32:18.415Z,19.80
2019-06-01T07:34:45.643Z,20.00
2019-06-01T07:37:12.746Z,20.10
2019-06-01T07:39:39.786Z,20.10
2019-06-01T07:42:07.004Z,20.30
2019-06-01T07:44:35.152Z,20.50
2019-06-01T07:47:02.352Z,20.70
2019-06-01T07:49:29.379Z,20.70
2019-06-01T07:51:56.912Z,20.80
2019-06-01T07:54:24.883Z,20.90
2019-06-01T07:56:52.176Z,21.00
2019-06-01T07:59:19.438Z,21.10
2019-06-01T08:01:46.906Z,21.30
2019-06-01T08:04:14.244Z,21.60
2019-06-01T08:06:46.296Z,21.70
2019-06-01T08:09:10.447Z,21.80
2019-06-01T08:11:37.547Z,22.00
2019-06-01T08:14:04.680Z,22.00
2019-06-01T08:16:32.060Z,22.10
2019-06-01T08:18:59.374Z,22.00
2019-06-01T08:21:26.487Z,22.10
2019-06-01T08:23:53.515Z,22.20
2019-06-01T08:26:20.566Z,22.30
2019-06-01T08:28:47.688Z,22.30
2019-06-01T08:31:14.707Z,22.30
2019-06-01T08:33:41.841Z,22.30
2019-06-01T08:36:08.943Z,22.30
2019-06-01T08:38:36.303Z,22.50
2019-06-01T08:41:03.815Z,22.50
2019-06-01T08:43:31.828Z,22.70
2019-06-01T08:45:58.948Z,22.80
2019-06-01T08:48:27.651Z,22.70
2019-06-01T08:50:55.415Z,22.80
2019-06-01T08:53:23.753Z,23.10
2019-06-01T08:55:51.339Z,23.30
2019-06-01T08:58:18.527Z,23.30
2019-06-01T09:00:45.657Z,23.40
2019-06-01T09:03:12.846Z,23.50
2019-06-01T09:05:40.072Z,23.70
2019-06-01T09:08:07.295Z,23.70
2019-06-01T09:10:35.541Z,23.90
2019-06-01T09:13:02.990Z,24.10
2019-06-01T09:15:31.465Z,24.20
2019-06-01T09:17:59.303Z,24.10
2019-06-01T09:20:27.410Z,23.80
2019-06-01T09:22:54.792Z,23.90
2019-06-01T09:25:21.911Z,24.00
2019-06-01T09:27:49.420Z,24.30
2019-06-01T09:30:16.679Z,24.40
2019-06-01T09:32:43.906Z,24.50
2019-06-01T09:35:12.367Z,24.60
2019-06-01T09:37:39.362Z,24.60
2019-06-01T09:40:07.032Z,24.30
2019-06-01T09:42:35.146Z,24.30
2019-06-01T09:45:04.829Z,24.20
2019-06-01T09:47:33.236Z,24.50
2019-06-01T09:50:00.633Z,24.30
2019-06-01T09:52:27.662Z,24.10
2019-06-01T09:54:55.009Z,24.20
2019-06-01T09:57:22.142Z,24.40
2019-06-01T09:59:49.234Z,24.70
2019-06-01T10:02:16.539Z,25.20
2019-06-01T10:04:43.667Z,24.90
2019-06-01T10:07:11.804Z,24.80
2019-06-01T10:09:39.079Z,24.70
2019-06-01T10:12:06.257Z,25.00
2019-06-01T10:14:34.176Z,25.20
2019-06-01T10:17:01.765Z,24.60
2019-06-01T10:19:28.873Z,24.80
2019-06-01T10:21:55.975Z,25.30
2019-06-01T10:24:23.122Z,25.70
2019-06-01T10:26:50.283Z,25.70
2019-06-01T10:29:17.403Z,25.60
2019-06-01T10:31:45.530Z,25.60
2019-06-01T10:34:12.588Z,26.10
2019-06-01T10:36:40.137Z,26.40
2019-06-01T10:39:07.497Z,26.60
2019-06-01T10:41:35.346Z,27.00
2019-06-01T10:44:02.811Z,27.60
2019-06-01T10:46:29.962Z,28.50
2019-06-01T10:48:57.297Z,29.50
2019-06-01T10:51:24.329Z,29.80
2019-06-01T10:53:51.531Z,30.10
2019-06-01T10:56:18.653Z,30.30
2019-06-01T10:58:58.997Z,30.80
2019-06-01T11:01:14.585Z,31.40
2019-06-01T11:03:42.775Z,31.30
2019-06-01T11:06:10.228Z,31.80
2019-06-01T11:08:37.397Z,32.40
2019-06-01T11:11:04.580Z,32.10
2019-06-01T11:13:33.048Z,32.60
2019-06-01T11:16:00.520Z,33.00
2019-06-01T11:18:27.676Z,33.00
2019-06-01T11:20:57.282Z,33.80
2019-06-01T11:23:24.521Z,34.40
2019-06-01T11:25:51.583Z,34.10
2019-06-01T11:28:18.847Z,33.60
2019-06-01T11:30:46.054Z,32.90
2019-06-01T11:33:13.255Z,34.00
2019-06-01T11:35:41.446Z,34.70
2019-06-01T11:38:08.785Z,35.50
2019-06-01T11:40:36.467Z,35.40
2019-06-01T11:43:03.749Z,35.70
2019-06-01T11:45:30.854Z,35.70
2019-06-01T11:47:58.021Z,35.20
2019-06-01T11:50:25.324Z,34.50
2019-06-01T11:52:52.481Z,35.10
2019-06-01T11:55:19.526Z,34.90
2019-06-01T11:57:46.952Z,35.70
2019-06-01T12:00:15.188Z,35.40
2019-06-01T12:02:42.129Z,35.80
2019-06-01T12:05:09.844Z,35.30
2019-06-01T12:07:37.708Z,34.40
2019-06-01T12:10:05.899Z,35.30
2019-06-01T12:12:32.990Z,35.90
2019-06-01T12:15:00.093Z,35.20
2019-06-01T12:17:27.103Z,34.90
2019-06-01T12:19:54.571Z,35.10
2019-06-01T12:22:21.635Z,34.70
2019-06-01T12:24:48.708Z,35.50
2019-06-01T12:27:15.729Z,36.40
2019-06-01T12:29:43.791Z,36.60
2019-06-01T12:32:10.901Z,37.10
2019-06-01T12:34:38.128Z,37.20
2019-06-01T12:37:05.436Z,35.10
2019-06-01T12:39:32.609Z,35.00
2019-06-01T12:41:59.828Z,35.80
2019-06-01T12:44:28.203Z,36.30
2019-06-01T12:46:55.191Z,36.90
2019-06-01T12:49:22.298Z,37.50
2019-06-01T12:51:49.420Z,37.90
2019-06-01T12:54:16.584Z,38.00
2019-06-01T12:56:44.758Z,38.90
2019-06-01T12:59:12.095Z,38.70
2019-06-01T13:01:39.235Z,38.80
2019-06-01T13:04:06.401Z,37.80
2019-06-01T13:06:33.415Z,37.50
2019-06-01T13:09:00.567Z,37.50
2019-06-01T13:11:27.603Z,37.20
2019-06-01T13:13:54.746Z,37.80
2019-06-01T13:16:21.934Z,37.80
2019-06-01T13:18:49.506Z,37.80
2019-06-01T13:21:16.711Z,38.00
2019-06-01T13:23:43.823Z,37.50
2019-06-01T13:26:11.050Z,37.50
2019-06-01T13:28:38.593Z,37.70
2019-06-01T13:31:10.346Z,37.60
2019-06-01T13:33:38.450Z,37.70
2019-06-01T13:36:05.659Z,38.00
2019-06-01T13:38:32.764Z,38.00
2019-06-01T13:40:59.815Z,38.50
2019-06-01T13:43:26.881Z,38.40
2019-06-01T13:45:53.934Z,37.50
2019-06-01T13:48:21.078Z,37.10
2019-06-01T13:50:48.413Z,37.30
2019-06-01T13:53:15.472Z,37.40
2019-06-01T13:55:43.975Z,37.30
2019-06-01T13:58:11.411Z,37.00
2019-06-01T14:00:38.559Z,37.90
2019-06-01T14:03:05.731Z,37.40
2019-06-01T14:05:33.001Z,37.20
2019-06-01T14:08:00.091Z,37.30
2019-06-01T14:10:27.125Z,36.80
2019-06-01T14:12:54.404Z,36.60
2019-06-01T14:15:22.555Z,36.90
2019-06-01T14:17:50.256Z,37.40
2019-06-01T14:20:17.348Z,37.10
2019-06-01T14:22:45.668Z,37.50
2019-06-01T14:25:15.019Z,37.70
2019-06-01T14:27:41.650Z,37.50
2019-06-01T14:30:10.239Z,37.10
2019-06-01T14:32:37.246Z,36.70
2019-06-01T14:35:04.358Z,37.30
2019-06-01T14:37:31.657Z,37.50
2019-06-01T14:39:58.993Z,36.50
2019-06-01T14:42:25.960Z,36.50
2019-06-01T14:44:54.010Z,37.00
2019-06-01T14:47:21.150Z,37.50
2019-06-01T14:49:49.404Z,37.50
2019-06-01T14:52:16.751Z,37.00
2019-06-01T14:54:43.913Z,36.60
2019-06-01T14:57:10.843Z,37.00
2019-06-01T14:59:37.862Z,36.80
2019-06-01T15:02:05.066Z,37.00
2019-06-01T15:04:32.145Z,37.20
2019-06-01T15:06:58.989Z,37.20
2019-06-01T15:09:25.928Z,37.20
2019-06-01T15:11:52.819Z,37.10
2019-06-01T15:14:19.820Z,37.30
2019-06-01T15:16:46.859Z,37.10
2019-06-01T15:19:14.012Z,37.10
2019-06-01T15:21:41.018Z,37.10
2019-06-01T15:24:08.986Z,36.90
2019-06-01T15:26:35.929Z,37.20
2019-06-01T15:29:03.452Z,36.70
2019-06-01T15:31:30.453Z,36.50
2019-06-01T15:33:57.472Z,36.70
2019-06-01T15:36:24.825Z,36.30
2019-06-01T15:38:53.771Z,36.40
2019-06-01T15:41:20.819Z,36.40
2019-06-01T15:43:47.718Z,36.70
2019-06-01T15:46:14.773Z,36.80
2019-06-01T15:48:42.134Z,35.80
2019-06-01T15:51:09.274Z,35.60
2019-06-01T15:53:36.375Z,35.60
2019-06-01T15:56:03.609Z,35.80
2019-06-01T15:58:30.540Z,35.90
2019-06-01T16:00:58.597Z,35.80
2019-06-01T16:03:26.402Z,36.00
2019-06-01T16:05:53.294Z,35.80
2019-06-01T16:08:20.319Z,35.80
2019-06-01T16:10:47.720Z,35.50
2019-06-01T16:13:14.703Z,35.10
2019-06-01T16:15:41.661Z,34.40
2019-06-01T16:18:08.545Z,33.30
2019-06-01T16:20:35.507Z,32.10
2019-06-01T16:23:02.746Z,31.40
2019-06-01T16:25:29.669Z,30.90
2019-06-01T16:27:56.701Z,30.40
2019-06-01T16:30:23.908Z,30.20
2019-06-01T16:32:50.841Z,29.90
2019-06-01T16:35:17.835Z,29.80
2019-06-01T16:37:44.769Z,29.70
2019-06-01T16:40:12.758Z,29.50
2019-06-01T16:42:40.030Z,29.30
2019-06-01T16:45:08.692Z,29.10
2019-06-01T16:47:36.570Z,29.00
2019-06-01T16:50:04.061Z,28.90
2019-06-01T16:52:31.049Z,28.80
2019-06-01T16:54:58.271Z,28.60
2019-06-01T16:57:25.591Z,28.40
2019-06-01T16:59:52.924Z,28.40
2019-06-01T17:02:21.259Z,28.20
2019-06-01T17:04:48.365Z,28.20
2019-06-01T17:07:16.414Z,27.90
2019-06-01T17:09:43.491Z,27.70
2019-06-01T17:12:10.816Z,27.60
2019-06-01T17:14:37.910Z,27.60
2019-06-01T17:17:05.343Z,27.60
2019-06-01T17:19:32.795Z,27.70
2019-06-01T17:22:01.337Z,27.60
2019-06-01T17:24:28.582Z,27.50
2019-06-01T17:26:55.837Z,27.40
2019-06-01T17:29:22.847Z,27.50
2019-06-01T17:31:54.435Z,27.70
2019-06-01T17:34:19.308Z,28.20
2019-06-01T17:36:46.709Z,28.60
2019-06-01T17:39:14.021Z,28.70
2019-06-01T17:41:41.050Z,28.70
2019-06-01T17:44:09.017Z,28.90
2019-06-01T17:46:52.366Z,29.20
2019-06-01T17:49:06.199Z,28.90
2019-06-01T17:51:33.494Z,28.80
2019-06-01T17:54:02.581Z,28.30
2019-06-01T17:56:29.811Z,27.80
2019-06-01T17:58:57.083Z,27.40
2019-06-01T18:01:24.475Z,27.10
2019-06-01T18:03:51.859Z,26.90
2019-06-01T18:06:20.082Z,26.70
2019-06-01T18:08:47.122Z,26.60
2019-06-01T18:11:14.670Z,26.40
2019-06-01T18:13:41.879Z,26.20
2019-06-01T18:16:10.304Z,26.00
2019-06-01T18:18:37.877Z,25.90
2019-06-01T18:21:06.208Z,25.70
2019-06-01T18:23:33.805Z,25.60
2019-06-01T18:26:02.424Z,25.50
2019-06-01T18:28:29.778Z,25.40
2019-06-01T18:30:56.929Z,25.20
2019-06-01T18:33:24.366Z,25.10
2019-06-01T18:35:51.634Z,24.90
2019-06-01T18:38:18.703Z,24.80
2019-06-01T18:40:45.889Z,24.60
2019-06-01T18:43:16.706Z,24.50
2019-06-01T18:45:44.514Z,24.40
2019-06-01T18:48:12.381Z,24.30
2019-06-01T18:50:39.914Z,24.20
2019-06-01T18:53:08.019Z,24.10
2019-06-01T18:55:35.869Z,24.00
2019-06-01T18:58:04.055Z,23.90
2019-06-01T19:00:31.409Z,23.80
2019-06-01T19:02:58.543Z,23.80
2019-06-01T19:05:25.756Z,23.70
2019-06-01T19:07:52.917Z,23.50
2019-06-01T19:10:20.164Z,23.50
2019-06-01T19:12:47.515Z,23.40
2019-06-01T19:15:26.641Z,23.30
2019-06-01T19:17:44.407Z,23.20
2019-06-01T19:20:15.298Z,23.10
2019-06-01T19:22:42.550Z,23.00
2019-06-01T19:25:11.219Z,23.00
2019-06-01T19:27:38.923Z,22.90
2019-06-01T19:30:08.769Z,22.70
2019-06-01T19:32:36.706Z,22.60
2019-06-01T19:35:07.396Z,22.50
2019-06-01T19:37:38.174Z,22.50
2019-06-01T19:40:05.395Z,22.40
2019-06-01T19:42:32.451Z,22.30
2019-06-01T19:44:59.427Z,22.20
2019-06-01T19:47:26.395Z,22.10
2019-06-01T19:49:53.518Z,22.00
2019-06-01T19:52:20.847Z,21.90
2019-06-01T19:54:47.904Z,21.80
2019-06-01T19:57:19.029Z,21.70
2019-06-01T19:59:44.878Z,21.60
2019-06-01T20:02:25.098Z,21.50
2019-06-01T20:04:41.083Z,21.50
2019-06-01T20:07:08.374Z,21.40
2019-06-01T20:09:35.519Z,21.30
2019-06-01T20:12:07.932Z,21.20
2019-06-01T20:14:31.527Z,21.20
2019-06-01T20:16:58.478Z,21.10
2019-06-01T20:19:25.372Z,21.10
2019-06-01T20:21:52.370Z,21.00
2019-06-01T20:24:19.447Z,20.90
2019-06-01T20:26:49.163Z,20.90
2019-06-01T20:29:15.584Z,20.90
2019-06-01T20:31:42.913Z,20.80
2019-06-01T20:34:09.801Z,20.80
2019-06-01T20:36:36.700Z,20.70
2019-06-01T20:39:05.816Z,20.70
2019-06-01T20:41:33.102Z,20.60
2019-06-01T20:44:00.001Z,20.50
2019-06-01T20:46:26.879Z,20.50
2019-06-01T20:48:53.862Z,20.40
2019-06-01T20:51:20.994Z,20.40
2019-06-01T20:53:47.954Z,20.30
2019-06-01T20:56:15.372Z,20.30
2019-06-01T20:58:42.353Z,20.20
2019-06-01T21:01:09.234Z,20.10
2019-06-01T21:03:36.137Z,20.10
2019-06-01T21:06:04.146Z,20.00
2019-06-01T21:08:31.057Z,20.00
2019-06-01T21:10:57.991Z,20.00
2019-06-01T21:13:24.895Z,20.00
2019-06-01T21:15:51.876Z,20.00
2019-06-01T21:18:19.755Z,19.90
2019-06-01T21:20:47.828Z,19.90
2019-06-01T21:23:14.883Z,19.90
2019-06-01T21:25:42.144Z,19.80
2019-06-01T21:28:14.031Z,19.80
2019-06-01T21:30:38.556Z,19.80
2019-06-01T21:33:05.737Z,19.70
2019-06-01T21:35:32.763Z,19.70
2019-06-01T21:37:59.942Z,19.70
2019-06-01T21:40:26.978Z,19.60
2019-06-01T21:43:03.012Z,19.60
2019-06-01T21:45:24.312Z,19.60
2019-06-01T21:47:51.573Z,19.50
2019-06-01T21:50:19.900Z,19.50
2019-06-01T21:52:47.809Z,19.40
2019-06-01T21:55:16.005Z,19.40
2019-06-01T21:57:43.909Z,19.40
2019-06-01T22:00:12.358Z,19.40
2019-06-01T22:02:42.585Z,19.30
2019-06-01T22:05:10.038Z,19.30
2019-06-01T22:07:37.194Z,19.20
2019-06-01T22:10:05.318Z,19.20
2019-06-01T22:12:32.427Z,19.10
2019-06-01T22:14:59.841Z,19.10
2019-06-01T22:17:27.914Z,19.10
2019-06-01T22:19:55.198Z,19.00
2019-06-01T22:22:23.812Z,19.00
2019-06-01T22:24:51.396Z,19.00
2019-06-01T22:27:19.963Z,18.90
2019-06-01T22:29:47.423Z,18.90
2019-06-01T22:32:14.900Z,18.90
2019-06-01T22:34:42.075Z,18.90
2019-06-01T22:37:09.342Z,18.80
2019-06-01T22:39:36.514Z,18.80
2019-06-01T22:42:03.771Z,18.70
2019-06-01T22:44:31.021Z,18.70
2019-06-01T22:46:58.136Z,18.70
2019-06-01T22:49:26.721Z,18.60
2019-06-01T22:51:53.930Z,18.60
2019-06-01T22:54:21.094Z,18.60
2019-06-01T22:56:48.427Z,18.50
2019-06-01T22:59:15.711Z,18.50
2019-06-01T23:01:42.971Z,18.50
2019-06-01T23:04:10.254Z,18.40
2019-06-01T23:06:37.611Z,18.40
2019-06-01T23:09:06.899Z,18.30
2019-06-01T23:11:34.090Z,18.30
2019-06-01T23:14:01.404Z,18.20
2019-06-01T23:16:29.731Z,18.20
2019-06-01T23:18:57.290Z,18.20
2019-06-01T23:21:25.659Z,18.20
2019-06-01T23:23:52.927Z,18.10
2019-06-01T23:26:19.961Z,18.10
2019-06-01T23:28:47.170Z,18.10
2019-06-01T23:31:14.496Z,18.00
2019-06-01T23:33:41.821Z,18.00
2019-06-01T23:36:09.064Z,17.90
2019-06-01T23:38:36.130Z,17.90
2019-06-01T23:41:03.548Z,17.90
2019-06-01T23:43:30.981Z,17.90
2019-06-01T23:45:58.356Z,17.90
2019-06-01T23:48:25.609Z,17.90
2019-06-01T23:50:52.712Z,17.80
2019-06-01T23:53:19.819Z,17.80
2019-06-01T23:55:47.008Z,17.70
2019-06-01T23:58:14.346Z,17.70
